Briefing drone pour Saint-pal-de-mons

Rechercher une autre localisation

Conditions de vol :


Nous sommes le : Jeudi 17 juin 2021
Il est 16:43 UTC (18:43 LT)

Lever de soleil : 03:28 UTC (05:28 LT)
Coucher de soleil : 19:59 UTC (21:59 LT)

Météo

L'essentiel des conditions de vol

VIGILANCE MÉTÉO FRANCE - Haute-Loire (43)
Vigilance Jaune : Orages
METAR de LFMH
LFMH 171630Z AUTO 19012KT 160V220 5000 +RA HZ FEW056/// BKN066/// BKN096/// ///TCU 23/15 Q1013

Date d'émission: 17/06/2021
Heure d'émission: 16:30 UTC
Vent: 190° (variable du 160° au 220°) pour 12 KT (22 km/h)
Visibilité horizontale: 5000 m
Plafond :
- Peu de nuages à 5600ft (1707m)
- Nuages morcelés à 6600ft (2012m)
- Nuages morcelés à 9600ft (2926m)
Température: 23 °C
Point de rosée: 15 °C
Humidité: 61%
Pression (QNH): 1013 hPa
Conditions: Forte pluie
TAF de LFMH
LFMH 161901Z 1619/1712 CNL

Conditions prévues :

Heure d'émission : Bulletin éffectué le 16 à 19:00 UTC
Prévision : Valide du 16 a 19:00 UTC au 17 a 12:00 UTC
Nuages : à 0ft (0 m)
WEBCAM POUR SAINT-PAL-DE-MONS

Réglementation

Voler en sécurité

CARTES AERONAUTIQUE 1/500.000
CARTES VAC (LFMH)
SUP AIP




Chargement des AIP...
NOTAM (SAINT-PAL-DE-MONS + Terrain à proximité / FIR )




Chargement des NOTAMS...
CONTACT PREFECTURE 43


Avertissement : Les données mises à disposition sont indicatives. Oxygène Drone ne pourra être tenu responsable de dégâts causés aux biens et aux personnes.